Time;durP1;ratioP1;P1;durP2;ratioP2;P2;SDS_P1;SDS_P2;PMS_P1;PMS_P2;Temp;Humidity;BMP_temperature;BMP_pressure;BME280_temperature;BME280_humidity;BME280_pressure;Samples;Min_cycle;Max_cycle;Signal;HPM_P1;HPM_P2
2021/12/21 00:01:55;;;;;;;22.45;13.25;;;11.30;74.20;;;;;;5084282;28;20405;-56
2021/12/21 00:04:21;;;;;;;28.40;13.35;;;11.20;74.00;;;;;;5082884;28;20508;-58
2021/12/21 00:06:46;;;;;;;29.73;12.75;;;11.10;74.30;;;;;;5086569;28;20032;-58
2021/12/21 00:09:12;;;;;;;19.08;11.35;;;11.20;74.20;;;;;;5077854;28;20043;-59
2021/12/21 00:11:38;;;;;;;27.45;13.30;;;11.10;74.20;;;;;;5083705;28;20027;-59
2021/12/21 00:14:16;;;;;;;23.77;12.43;;;11.10;74.30;;;;;;5089870;28;20504;-59
2021/12/21 00:21:52;;;;;;;21.23;12.35;;;11.10;74.40;;;;;;5085190;28;20065;-60
2021/12/21 00:24:22;;;;;;;22.33;12.40;;;11.10;74.30;;;;;;5095118;28;20127;-59
2021/12/21 00:26:48;;;;;;;22.98;13.10;;;11.00;74.40;;;;;;5095609;28;20078;-58
2021/12/21 00:29:13;;;;;;;27.30;12.93;;;11.00;74.40;;;;;;5095924;28;20024;-59
2021/12/21 00:31:39;;;;;;;25.55;13.13;;;10.90;74.70;;;;;;5080737;28;20358;-58
2021/12/21 00:34:07;;;;;;;22.00;11.80;;;11.00;74.60;;;;;;5080894;28;20035;-62
2021/12/21 00:36:34;;;;;;;27.25;12.85;;;10.90;74.60;;;;;;5075543;28;20462;-61
2021/12/21 00:39:05;;;;;;;23.25;11.93;;;11.00;74.70;;;;;;5075271;28;20025;-61
2021/12/21 00:41:31;;;;;;;27.03;12.63;;;10.90;74.50;;;;;;5075478;28;20024;-61
2021/12/21 00:43:57;;;;;;;24.10;12.63;;;10.90;74.60;;;;;;5075358;28;20389;-62
2021/12/21 00:46:23;;;;;;;26.10;11.82;;;10.90;74.90;;;;;;5075619;28;20385;-59
2021/12/21 00:48:52;;;;;;;24.58;11.85;;;10.80;74.80;;;;;;5077323;28;20020;-59
2021/12/21 00:51:20;;;;;;;21.38;12.10;;;10.70;74.70;;;;;;5083910;28;20050;-60
2021/12/21 00:53:45;;;;;;;24.92;11.30;;;10.80;74.80;;;;;;5081651;28;20099;-62
2021/12/21 00:56:11;;;;;;;24.60;12.00;;;10.80;74.90;;;;;;5079904;28;20052;-62
2021/12/21 00:58:37;;;;;;;25.75;12.73;;;10.70;74.80;;;;;;5078484;28;20024;-61
2021/12/21 01:01:05;;;;;;;23.52;12.88;;;10.70;74.70;;;;;;5074066;28;20036;-59
2021/12/21 01:03:37;;;;;;;21.50;11.77;;;10.70;74.70;;;;;;5074671;28;20013;-63
2021/12/21 01:11:41;;;;;;;21.23;11.48;;;10.70;74.80;;;;;;5075134;28;20390;-58
2021/12/21 01:17:20;;;;;;;23.58;11.98;;;10.60;74.60;;;;;;5075397;28;20039;-61
2021/12/21 01:19:43;;;;;;;26.83;11.88;;;10.60;74.80;;;;;;5074369;28;20035;-62
2021/12/21 01:22:19;;;;;;;28.33;12.65;;;10.50;74.70;;;;;;5074309;28;20470;-60
2021/12/21 01:27:44;;;;;;;24.25;12.63;;;10.50;74.80;;;;;;5074263;28;20059;-59
2021/12/21 01:30:30;;;;;;;27.52;11.25;;;10.50;74.30;;;;;;5074689;28;20021;-62
2021/12/21 01:33:19;;;;;;;21.00;10.93;;;10.50;74.20;;;;;;5074929;28;20028;-59
2021/12/21 01:35:48;;;;;;;23.02;11.77;;;10.40;74.40;;;;;;5073715;28;20092;-59
2021/12/21 01:38:31;;;;;;;25.13;11.63;;;10.40;74.20;;;;;;5073822;28;20078;-59
2021/12/21 01:41:28;;;;;;;24.98;11.10;;;10.30;74.40;;;;;;5074840;28;20089;-60
2021/12/21 01:43:57;;;;;;;19.83;11.05;;;10.40;74.20;;;;;;5074496;28;20098;-59
2021/12/21 01:51:51;;;;;;;20.73;11.02;;;10.30;74.00;;;;;;5074070;28;20035;-59
2021/12/21 01:54:17;;;;;;;21.58;10.15;;;10.20;73.90;;;;;;5074419;28;20021;-59
2021/12/21 01:56:42;;;;;;;24.05;11.38;;;10.20;74.30;;;;;;5074182;28;20036;-59
2021/12/21 01:59:09;;;;;;;18.75;10.32;;;10.30;74.20;;;;;;5074241;28;20550;-60
2021/12/21 02:01:35;;;;;;;18.88;10.20;;;10.20;74.30;;;;;;5074100;28;20469;-59
2021/12/21 02:04:01;;;;;;;19.85;10.13;;;10.10;74.20;;;;;;5074339;28;20466;-59
2021/12/21 02:06:28;;;;;;;22.55;10.25;;;10.10;74.40;;;;;;5073573;28;20028;-59
2021/12/21 02:08:54;;;;;;;17.20;10.63;;;10.10;74.20;;;;;;5074262;28;20029;-59
2021/12/21 02:11:24;;;;;;;24.05;10.13;;;10.10;74.10;;;;;;5073894;28;20025;-62
2021/12/21 02:13:51;;;;;;;20.45;10.23;;;10.00;74.50;;;;;;5073980;28;20067;-60
2021/12/21 02:16:38;;;;;;;22.38;11.00;;;10.10;74.30;;;;;;5072577;28;20025;-59
2021/12/21 02:19:15;;;;;;;19.52;9.82;;;10.10;74.50;;;;;;5073561;28;20523;-59
2021/12/21 02:21:46;;;;;;;22.73;11.02;;;10.00;74.20;;;;;;5073902;28;20420;-60
2021/12/21 02:24:17;;;;;;;22.02;10.27;;;10.00;74.20;;;;;;5073538;28;20093;-59
2021/12/21 02:26:52;;;;;;;23.35;11.07;;;9.90;74.40;;;;;;5073799;28;20107;-59
2021/12/21 02:29:29;;;;;;;20.38;10.88;;;10.00;74.30;;;;;;5073866;28;20012;-59
2021/12/21 02:31:55;;;;;;;19.30;9.48;;;9.90;74.40;;;;;;5073713;28;20027;-58
2021/12/21 02:34:22;;;;;;;23.63;10.68;;;9.90;74.30;;;;;;5073223;28;20078;-59
2021/12/21 02:36:50;;;;;;;20.67;10.73;;;9.90;73.90;;;;;;5073405;28;20052;-59
2021/12/21 02:39:17;;;;;;;18.77;10.55;;;9.80;74.00;;;;;;5073459;28;20366;-59
2021/12/21 02:41:44;;;;;;;18.60;10.05;;;9.70;74.40;;;;;;5073798;28;20070;-59
2021/12/21 02:44:10;;;;;;;16.33;10.40;;;9.80;74.10;;;;;;5091952;28;20440;-62
2021/12/21 02:46:39;;;;;;;18.98;10.63;;;9.80;74.60;;;;;;5092809;28;20045;-59
2021/12/21 02:49:06;;;;;;;23.73;10.10;;;9.70;74.40;;;;;;5093234;28;20458;-59
2021/12/21 02:51:32;;;;;;;18.58;10.32;;;9.70;74.40;;;;;;5093779;28;20028;-58
2021/12/21 02:53:57;;;;;;;21.40;10.20;;;9.70;74.40;;;;;;5093803;28;20385;-59
2021/12/21 02:56:23;;;;;;;17.70;8.98;;;9.70;74.70;;;;;;5093350;28;20028;-58
2021/12/21 02:58:48;;;;;;;18.30;10.50;;;9.60;74.80;;;;;;5093613;28;20050;-61
2021/12/21 03:01:15;;;;;;;22.75;10.73;;;9.60;74.60;;;;;;5093091;28;20063;-60
2021/12/21 03:03:41;;;;;;;15.48;9.20;;;9.60;74.70;;;;;;5093117;28;20434;-61
2021/12/21 03:06:12;;;;;;;23.88;10.13;;;9.60;75.20;;;;;;5093411;28;20020;-59
2021/12/21 03:08:42;;;;;;;22.15;10.75;;;9.50;74.60;;;;;;5093578;28;20020;-58
2021/12/21 03:11:24;;;;;;;15.48;9.48;;;9.50;74.20;;;;;;5093299;28;20055;-59
2021/12/21 03:14:05;;;;;;;19.63;10.00;;;9.50;74.80;;;;;;5093357;28;20063;-60
2021/12/21 03:16:35;;;;;;;24.13;11.25;;;9.50;74.30;;;;;;5093165;28;20036;-59
2021/12/21 03:19:01;;;;;;;17.83;10.00;;;9.50;74.20;;;;;;5092995;28;20115;-63
2021/12/21 03:21:27;;;;;;;19.25;10.13;;;9.40;74.70;;;;;;5093372;28;20114;-63
2021/12/21 03:23:54;;;;;;;20.27;10.23;;;9.40;74.20;;;;;;5093202;28;20056;-61
2021/12/21 03:26:20;;;;;;;15.88;9.73;;;9.40;74.50;;;;;;5096732;28;20032;-59
2021/12/21 03:28:46;;;;;;;19.67;10.07;;;9.30;74.40;;;;;;5099852;28;20077;-59
2021/12/21 03:31:11;;;;;;;19.73;11.20;;;9.30;74.50;;;;;;5099735;28;20028;-58
2021/12/21 03:33:38;;;;;;;20.33;10.27;;;9.40;74.20;;;;;;5099671;28;20027;-59
2021/12/21 03:36:05;;;;;;;17.45;9.77;;;9.30;74.40;;;;;;5099922;28;20085;-58
2021/12/21 03:38:31;;;;;;;17.08;9.85;;;9.30;74.60;;;;;;5099709;28;20476;-59
2021/12/21 03:41:03;;;;;;;17.63;9.32;;;9.30;74.70;;;;;;5099842;28;20409;-59
2021/12/21 03:43:33;;;;;;;20.02;9.02;;;9.20;74.30;;;;;;5099456;28;20047;-59
2021/12/21 03:46:08;;;;;;;16.80;9.50;;;9.20;74.50;;;;;;5099877;28;20392;-62
2021/12/21 03:48:35;;;;;;;18.55;9.00;;;9.20;74.60;;;;;;5099680;28;20012;-62
2021/12/21 03:51:01;;;;;;;16.65;9.70;;;9.20;74.60;;;;;;5098577;28;20124;-61
2021/12/21 03:53:26;;;;;;;23.98;10.18;;;9.20;74.70;;;;;;5099481;28;20488;-64
2021/12/21 03:56:03;;;;;;;19.50;10.80;;;9.10;74.60;;;;;;5099471;28;20051;-62
2021/12/21 03:58:29;;;;;;;18.40;9.40;;;9.10;74.50;;;;;;5099497;28;20028;-62
2021/12/21 04:00:55;;;;;;;16.67;10.02;;;9.10;74.70;;;;;;5099439;28;20160;-62
2021/12/21 04:03:20;;;;;;;17.63;10.23;;;9.10;74.70;;;;;;5099364;28;20098;-62
2021/12/21 04:05:46;;;;;;;22.48;10.93;;;9.10;74.30;;;;;;5099562;28;20024;-62
2021/12/21 04:08:11;;;;;;;17.95;9.60;;;9.10;74.40;;;;;;5099426;28;20019;-62
2021/12/21 04:10:37;;;;;;;16.77;9.40;;;9.10;74.70;;;;;;5099367;28;20522;-63
2021/12/21 04:13:02;;;;;;;18.63;9.63;;;9.00;74.60;;;;;;5099278;28;20519;-63
2021/12/21 04:15:31;;;;;;;21.83;9.88;;;9.00;74.60;;;;;;5099109;28;20474;-61
2021/12/21 04:17:57;;;;;;;17.38;9.45;;;9.00;74.60;;;;;;5099567;28;20035;-62
2021/12/21 04:20:24;;;;;;;18.35;10.05;;;9.00;74.60;;;;;;5099146;28;20131;-62
2021/12/21 04:22:49;;;;;;;22.67;10.40;;;9.00;74.80;;;;;;5099375;28;20059;-61
2021/12/21 04:25:15;;;;;;;15.18;9.10;;;9.00;74.10;;;;;;5099320;28;20469;-62
2021/12/21 04:27:41;;;;;;;20.52;10.25;;;9.00;74.50;;;;;;5099465;28;20032;-63
2021/12/21 04:30:07;;;;;;;18.38;10.25;;;8.90;74.70;;;;;;5097918;28;20028;-62
2021/12/21 04:32:33;;;;;;;17.92;8.82;;;9.00;74.70;;;;;;5099132;28;20026;-61
2021/12/21 04:34:58;;;;;;;30.65;11.60;;;8.90;74.50;;;;;;5099263;28;20051;-63
2021/12/21 04:37:25;;;;;;;16.40;9.02;;;8.90;74.30;;;;;;5096873;28;20103;-62
2021/12/21 04:40:03;;;;;;;20.83;9.88;;;8.80;74.70;;;;;;5095786;28;20028;-61
2021/12/21 04:42:29;;;;;;;16.38;9.07;;;8.70;74.90;;;;;;5095876;28;20036;-62
2021/12/21 04:44:54;;;;;;;16.15;9.32;;;8.70;75.50;;;;;;5095678;28;20085;-63
2021/12/21 04:47:20;;;;;;;23.25;10.40;;;8.70;75.40;;;;;;5095946;28;20024;-62
2021/12/21 04:49:46;;;;;;;15.52;9.50;;;8.60;75.20;;;;;;5095759;28;20023;-63
2021/12/21 04:52:11;;;;;;;14.30;8.60;;;8.60;75.10;;;;;;5095841;28;20103;-62
2021/12/21 04:54:39;;;;;;;20.88;9.40;;;8.50;75.50;;;;;;5095507;28;20028;-62
2021/12/21 04:57:05;;;;;;;13.82;8.70;;;8.60;75.20;;;;;;5095966;28;20020;-63
2021/12/21 04:59:30;;;;;;;17.33;9.48;;;8.60;75.40;;;;;;5095502;28;20055;-62
2021/12/21 05:01:56;;;;;;;16.38;8.55;;;8.60;75.40;;;;;;5095852;28;20039;-62
2021/12/21 05:04:21;;;;;;;15.77;8.90;;;8.60;75.30;;;;;;5095449;28;20521;-65
2021/12/21 05:06:47;;;;;;;19.88;8.93;;;8.50;75.50;;;;;;5095549;28;20519;-62
2021/12/21 05:09:24;;;;;;;17.80;8.63;;;8.50;75.60;;;;;;5095647;28;20059;-62
2021/12/21 05:11:50;;;;;;;15.52;8.35;;;8.50;75.80;;;;;;5095657;28;20062;-63
2021/12/21 05:14:15;;;;;;;17.65;9.05;;;8.40;75.70;;;;;;5095000;28;20032;-63
2021/12/21 05:16:41;;;;;;;15.38;8.70;;;8.40;75.50;;;;;;5095510;28;20054;-65
2021/12/21 05:19:06;;;;;;;17.55;8.82;;;8.40;75.90;;;;;;5095097;28;20024;-62
2021/12/21 05:21:32;;;;;;;18.65;9.77;;;8.40;76.00;;;;;;5095263;28;20047;-59
2021/12/21 05:23:58;;;;;;;19.38;9.07;;;8.40;75.80;;;;;;5095333;28;20016;-62
2021/12/21 05:26:24;;;;;;;18.15;9.40;;;8.40;75.70;;;;;;5095180;28;20047;-62
2021/12/21 05:28:50;;;;;;;17.30;9.18;;;8.50;75.40;;;;;;5094856;28;20076;-62
2021/12/21 05:31:16;;;;;;;17.02;8.82;;;8.40;75.50;;;;;;5094932;28;20024;-62
2021/12/21 05:33:42;;;;;;;16.40;8.55;;;8.30;75.30;;;;;;5095080;28;20024;-62
2021/12/21 05:36:08;;;;;;;18.90;9.45;;;8.20;75.70;;;;;;5095064;28;20031;-63
2021/12/21 05:38:35;;;;;;;17.83;9.07;;;8.30;75.90;;;;;;5095105;28;20029;-62
2021/12/21 05:41:03;;;;;;;14.98;8.65;;;8.30;75.90;;;;;;5094927;28;20564;-62
2021/12/21 05:43:29;;;;;;;18.17;9.02;;;8.20;75.70;;;;;;5094565;28;20465;-63
2021/12/21 05:45:55;;;;;;;15.82;8.30;;;8.20;75.70;;;;;;5094606;28;20032;-62
2021/12/21 05:48:21;;;;;;;17.67;9.55;;;8.30;75.90;;;;;;5094343;28;20431;-62
2021/12/21 05:50:47;;;;;;;16.75;8.77;;;8.20;75.80;;;;;;5094717;28;20031;-63
2021/12/21 05:53:12;;;;;;;13.07;8.50;;;8.10;75.90;;;;;;5094783;28;20024;-62
2021/12/21 05:55:39;;;;;;;14.35;8.75;;;8.10;76.20;;;;;;5094417;28;20020;-62
2021/12/21 05:58:05;;;;;;;15.27;8.48;;;8.00;76.30;;;;;;5094443;28;20032;-63
2021/12/21 06:00:34;;;;;;;18.35;9.10;;;8.10;75.90;;;;;;5091138;28;20205;-62
2021/12/21 06:03:00;;;;;;;14.68;8.82;;;8.20;75.30;;;;;;5074030;28;20024;-62
2021/12/21 06:05:26;;;;;;;18.83;9.43;;;8.10;75.60;;;;;;5073396;28;20097;-62
2021/12/21 06:07:53;;;;;;;13.70;8.57;;;8.10;75.80;;;;;;5074500;28;20017;-61
2021/12/21 06:10:27;;;;;;;16.48;9.23;;;8.10;76.10;;;;;;5074059;28;20029;-62
2021/12/21 06:26:39;;;;;;;17.65;9.98;;;7.90;76.30;;;;;;5031524;28;20060;-59
2021/12/21 06:29:05;;;;;;;15.57;11.15;;;7.90;76.10;;;;;;5056313;28;20033;-59
2021/12/21 06:31:31;;;;;;;17.33;10.15;;;7.90;76.20;;;;;;5074222;28;20374;-62
2021/12/21 06:33:56;;;;;;;16.02;9.90;;;7.90;76.70;;;;;;5073562;28;20478;-62
2021/12/21 06:36:22;;;;;;;15.27;8.85;;;7.90;76.30;;;;;;5073446;28;20052;-62
2021/12/21 06:38:48;;;;;;;17.27;10.65;;;7.80;76.40;;;;;;5073495;28;20035;-62
2021/12/21 06:41:14;;;;;;;19.88;10.48;;;7.80;76.60;;;;;;5073152;28;20080;-62
2021/12/21 06:43:40;;;;;;;15.02;9.48;;;7.80;76.60;;;;;;5073644;28;20023;-62
2021/12/21 06:46:30;;;;;;;16.15;9.93;;;7.80;76.40;;;;;;5072075;28;20552;-62
2021/12/21 06:51:58;;;;;;;16.45;9.52;;;7.80;76.30;;;;;;5073290;28;20094;-60
2021/12/21 06:54:23;;;;;;;13.13;8.70;;;7.80;76.10;;;;;;5072894;28;20024;-62
2021/12/21 06:56:49;;;;;;;15.00;9.50;;;7.70;76.50;;;;;;5076183;28;20012;-63
2021/12/21 06:59:14;;;;;;;17.13;9.40;;;7.80;76.60;;;;;;5093361;28;20473;-62
2021/12/21 07:01:41;;;;;;;17.73;10.25;;;7.80;76.50;;;;;;5085910;28;20113;-63
2021/12/21 07:04:08;;;;;;;25.10;17.65;;;7.70;76.60;;;;;;5073309;28;20138;-63
2021/12/21 07:06:35;;;;;;;15.75;9.40;;;7.80;76.10;;;;;;5073198;28;20024;-63
2021/12/21 07:09:09;;;;;;;17.88;10.45;;;7.80;76.60;;;;;;5076154;28;20030;-62
2021/12/21 07:19:36;;;;;;;17.50;9.90;;;7.80;76.50;;;;;;5082955;28;20040;-63
2021/12/21 07:22:02;;;;;;;19.27;9.88;;;7.80;76.70;;;;;;5072279;28;20021;-63
2021/12/21 07:24:28;;;;;;;16.63;9.75;;;7.80;77.10;;;;;;5070820;28;20032;-63
2021/12/21 07:26:54;;;;;;;13.20;9.48;;;7.80;76.60;;;;;;5071454;28;20031;-63
2021/12/21 07:29:19;;;;;;;15.13;9.20;;;7.80;76.40;;;;;;5073118;28;20035;-64
2021/12/21 07:31:45;;;;;;;14.10;8.77;;;7.90;76.20;;;;;;5072798;28;20547;-61
2021/12/21 07:34:12;;;;;;;13.60;9.35;;;7.80;76.10;;;;;;5079933;28;20063;-62
2021/12/21 07:36:37;;;;;;;16.52;9.45;;;7.80;76.10;;;;;;5071108;28;20104;-62
2021/12/21 07:39:06;;;;;;;14.88;8.90;;;7.80;75.90;;;;;;5072300;28;20103;-61
2021/12/21 07:41:33;;;;;;;21.25;10.02;;;7.80;76.10;;;;;;5072744;28;20028;-62
2021/12/21 07:43:58;;;;;;;20.13;10.02;;;7.80;76.10;;;;;;5072583;28;20071;-62
2021/12/21 07:46:24;;;;;;;18.25;9.85;;;7.80;76.40;;;;;;5072735;28;20382;-62
2021/12/21 07:48:49;;;;;;;20.58;9.32;;;7.70;76.40;;;;;;5071147;28;20347;-62
2021/12/21 07:51:15;;;;;;;15.20;10.40;;;7.70;76.70;;;;;;5072533;28;20032;-61
2021/12/21 07:53:42;;;;;;;24.77;10.52;;;7.60;76.80;;;;;;5072396;28;20420;-60
2021/12/21 07:56:08;;;;;;;17.70;10.13;;;7.60;75.70;;;;;;5072816;28;20029;-61
2021/12/21 07:58:34;;;;;;;20.10;11.55;;;7.50;75.40;;;;;;5072818;28;20024;-61
2021/12/21 08:01:01;;;;;;;23.10;10.68;;;7.50;75.70;;;;;;5072530;28;20466;-61
2021/12/21 08:03:28;;;;;;;18.88;11.18;;;7.40;75.80;;;;;;5072497;28;20454;-62
2021/12/21 08:05:56;;;;;;;19.45;10.82;;;7.40;75.70;;;;;;5072452;28;20021;-61
2021/12/21 08:08:26;;;;;;;15.70;10.75;;;7.40;76.10;;;;;;5072198;28;20099;-62
2021/12/21 08:10:55;;;;;;;20.40;11.10;;;7.30;77.10;;;;;;5072745;28;20025;-61
2021/12/21 08:13:21;;;;;;;21.13;10.88;;;7.30;75.50;;;;;;5074537;28;20038;-61
2021/12/21 08:15:48;;;;;;;22.38;11.70;;;7.30;75.70;;;;;;5076237;28;20028;-61
2021/12/21 08:18:14;;;;;;;22.33;11.88;;;7.30;75.60;;;;;;5076116;28;20016;-61
2021/12/21 08:20:43;;;;;;;15.25;10.80;;;7.40;75.40;;;;;;5076184;28;20032;-61
2021/12/21 08:23:08;;;;;;;21.75;11.02;;;7.30;75.70;;;;;;5075657;28;20047;-61
2021/12/21 08:25:35;;;;;;;21.08;11.50;;;7.30;75.70;;;;;;5075962;28;20470;-61
2021/12/21 08:28:01;;;;;;;21.33;11.57;;;7.30;75.50;;;;;;5076149;28;20020;-61
2021/12/21 08:30:28;;;;;;;16.42;9.73;;;7.30;75.40;;;;;;5075872;28;20389;-62
2021/12/21 08:32:54;;;;;;;16.13;10.60;;;7.40;75.60;;;;;;5075973;28;20087;-61
2021/12/21 08:35:20;;;;;;;18.65;9.85;;;7.40;75.20;;;;;;5083107;28;20381;-61
2021/12/21 08:37:52;;;;;;;17.73;11.73;;;7.50;75.00;;;;;;5095971;28;20465;-61
2021/12/21 08:40:20;;;;;;;18.70;11.07;;;7.30;75.20;;;;;;5096048;28;20115;-60
2021/12/21 08:42:48;;;;;;;17.65;10.40;;;7.40;75.10;;;;;;5079202;28;20505;-61
2021/12/21 08:45:14;;;;;;;20.00;10.30;;;7.50;74.90;;;;;;5075466;28;20464;-62
2021/12/21 08:47:40;;;;;;;22.08;11.43;;;7.40;74.90;;;;;;5075711;28;20063;-61
2021/12/21 08:50:08;;;;;;;17.10;10.95;;;7.40;74.80;;;;;;5074074;28;20056;-61
2021/12/21 08:52:34;;;;;;;21.10;11.90;;;7.40;75.20;;;;;;5076510;28;20419;-61
2021/12/21 08:55:02;;;;;;;17.77;10.93;;;7.40;75.60;;;;;;5075204;28;20060;-61
2021/12/21 08:57:28;;;;;;;15.02;10.07;;;7.40;75.00;;;;;;5075487;28;20020;-61
2021/12/21 08:59:54;;;;;;;20.40;11.90;;;7.40;75.30;;;;;;5078463;28;20040;-65
2021/12/21 09:02:19;;;;;;;22.67;13.88;;;7.40;75.30;;;;;;5087064;28;20028;-62
2021/12/21 09:04:45;;;;;;;18.70;13.18;;;7.40;75.30;;;;;;5095057;28;20023;-64
2021/12/21 09:07:11;;;;;;;20.52;12.43;;;7.40;75.40;;;;;;5077028;28;20043;-64
2021/12/21 09:09:36;;;;;;;17.23;10.48;;;7.40;75.90;;;;;;5075259;28;20032;-64
2021/12/21 09:12:02;;;;;;;25.55;12.13;;;7.30;76.30;;;;;;5075306;28;20056;-64
2021/12/21 09:14:31;;;;;;;18.80;11.65;;;7.30;76.30;;;;;;5074916;28;20033;-63
2021/12/21 09:16:58;;;;;;;18.77;11.60;;;7.40;76.50;;;;;;5078709;28;20480;-63
2021/12/21 09:19:23;;;;;;;20.88;12.82;;;7.40;76.20;;;;;;5085847;28;20031;-63
2021/12/21 09:21:49;;;;;;;18.60;11.10;;;7.40;76.20;;;;;;5095339;28;20028;-63
2021/12/21 09:24:15;;;;;;;18.85;11.75;;;7.40;77.20;;;;;;5076481;28;20029;-63
2021/12/21 09:26:40;;;;;;;20.00;11.98;;;7.30;76.80;;;;;;5075914;28;20548;-64
2021/12/21 09:29:06;;;;;;;22.15;12.30;;;7.30;77.10;;;;;;5087505;28;20111;-62
2021/12/21 09:31:32;;;;;;;19.38;11.77;;;7.30;77.10;;;;;;5085161;28;20021;-61
2021/12/21 09:33:57;;;;;;;19.83;12.77;;;7.30;77.10;;;;;;5092220;28;20057;-61
2021/12/21 09:36:25;;;;;;;28.17;12.50;;;7.50;75.50;;;;;;5090414;28;20035;-61
2021/12/21 09:38:50;;;;;;;22.77;11.27;;;7.50;75.30;;;;;;5075830;28;20028;-59
2021/12/21 09:41:18;;;;;;;18.92;11.70;;;7.50;75.30;;;;;;5077059;28;20037;-60
2021/12/21 09:43:44;;;;;;;18.75;11.23;;;7.50;75.50;;;;;;5079579;28;20031;-61
2021/12/21 09:46:11;;;;;;;20.10;11.57;;;7.50;75.50;;;;;;5081820;28;20248;-59
2021/12/21 09:48:37;;;;;;;17.67;10.98;;;7.50;75.50;;;;;;5078933;28;20099;-60
2021/12/21 09:51:04;;;;;;;25.17;13.40;;;7.50;75.70;;;;;;5078139;28;20150;-59
2021/12/21 09:53:31;;;;;;;18.55;10.40;;;7.50;75.80;;;;;;5078842;28;20097;-59
2021/12/21 09:55:57;;;;;;;18.13;11.50;;;7.40;75.50;;;;;;5078383;28;20053;-58
2021/12/21 09:58:23;;;;;;;20.60;10.70;;;7.50;75.40;;;;;;5071514;28;20036;-59
2021/12/21 10:00:49;;;;;;;19.50;10.90;;;7.40;75.40;;;;;;5076980;28;20100;-59
2021/12/21 10:03:15;;;;;;;18.10;10.25;;;7.40;75.40;;;;;;5077631;28;20496;-62
2021/12/21 10:05:43;;;;;;;19.15;10.45;;;7.50;75.30;;;;;;5074897;28;20020;-60
2021/12/21 10:08:19;;;;;;;18.27;10.48;;;7.50;75.50;;;;;;5079943;28;20032;-61
2021/12/21 10:10:51;;;;;;;16.85;11.02;;;7.50;75.50;;;;;;5087796;28;20032;-59
2021/12/21 10:13:23;;;;;;;21.35;11.02;;;7.50;75.50;;;;;;5083265;28;20073;-60
2021/12/21 10:15:51;;;;;;;18.58;11.45;;;7.50;75.40;;;;;;5086329;28;20123;-59
2021/12/21 10:18:34;;;;;;;18.80;11.30;;;7.40;75.30;;;;;;5082829;28;20119;-59
2021/12/21 10:21:05;;;;;;;17.08;11.13;;;7.40;75.50;;;;;;5091894;28;20140;-63
2021/12/21 10:23:35;;;;;;;16.73;11.43;;;7.40;75.80;;;;;;5079771;28;20367;-61
2021/12/21 10:26:09;;;;;;;17.60;10.80;;;7.50;75.90;;;;;;5080740;28;20031;-62
2021/12/21 10:28:47;;;;;;;17.27;10.93;;;7.50;75.90;;;;;;5081365;28;20462;-61
2021/12/21 10:31:32;;;;;;;22.40;11.07;;;7.50;75.90;;;;;;5076856;28;20086;-63
2021/12/21 10:33:59;;;;;;;15.60;9.93;;;7.50;75.90;;;;;;5078455;28;20029;-60
2021/12/21 10:36:26;;;;;;;16.33;10.23;;;7.50;75.90;;;;;;5083658;28;20020;-62
2021/12/21 10:39:01;;;;;;;16.10;10.45;;;7.50;75.90;;;;;;5079983;28;20024;-63
2021/12/21 10:41:36;;;;;;;16.10;10.68;;;7.50;76.20;;;;;;5079312;28;20028;-61
2021/12/21 10:44:11;;;;;;;18.15;10.85;;;7.50;75.50;;;;;;5078219;28;20123;-60
2021/12/21 10:46:49;;;;;;;17.48;10.60;;;7.60;75.70;;;;;;5079647;28;20120;-61
2021/12/21 10:49:21;;;;;;;19.98;10.98;;;7.60;75.90;;;;;;5079245;28;20040;-60
2021/12/21 10:51:56;;;;;;;16.48;10.43;;;7.60;76.20;;;;;;5072984;28;20145;-61
2021/12/21 10:54:41;;;;;;;17.88;10.43;;;7.50;76.20;;;;;;5070478;28;20029;-62
2021/12/21 10:57:18;;;;;;;20.20;10.65;;;7.60;76.10;;;;;;5074204;28;20095;-63
2021/12/21 10:59:47;;;;;;;16.00;9.48;;;7.60;76.60;;;;;;5073392;28;20028;-62
2021/12/21 11:02:21;;;;;;;14.73;8.75;;;7.60;75.70;;;;;;5070834;28;20043;-61
2021/12/21 11:04:51;;;;;;;18.88;10.02;;;7.60;76.20;;;;;;5078514;28;20065;-60
2021/12/21 11:08:07;;;;;;;17.80;9.10;;;7.60;76.30;;;;;;5078322;28;20176;-59
2021/12/21 11:10:16;;;;;;;18.10;9.95;;;7.70;75.20;;;;;;5066863;28;20049;-60
2021/12/21 11:12:50;;;;;;;14.60;8.38;;;7.70;74.50;;;;;;5087275;28;20036;-59
2021/12/21 11:15:29;;;;;;;16.08;10.02;;;7.70;74.40;;;;;;5078000;28;20040;-59
2021/12/21 11:18:07;;;;;;;18.45;9.13;;;7.70;74.30;;;;;;5090226;28;20016;-59
2021/12/21 11:20:35;;;;;;;17.83;9.35;;;7.80;74.30;;;;;;5078615;28;20025;-61
2021/12/21 11:23:02;;;;;;;17.13;8.90;;;7.70;73.80;;;;;;5078544;28;20031;-60
2021/12/21 11:25:28;;;;;;;17.80;9.95;;;7.70;74.50;;;;;;5079001;28;20385;-60
2021/12/21 11:27:54;;;;;;;18.67;9.00;;;7.70;74.50;;;;;;5074422;28;20020;-62
2021/12/21 11:30:24;;;;;;;16.25;9.00;;;7.60;75.30;;;;;;5072980;28;20035;-60
2021/12/21 11:32:52;;;;;;;21.52;10.77;;;7.80;74.40;;;;;;5096614;28;20024;-60
2021/12/21 11:37:50;;;;;;;13.57;9.18;;;7.80;73.60;;;;;;5108038;28;20387;-59
2021/12/21 11:40:19;;;;;;;14.32;8.02;;;7.80;73.30;;;;;;5090291;28;20032;-60
2021/12/21 11:42:51;;;;;;;13.90;8.82;;;7.80;73.40;;;;;;5086499;28;20085;-60
2021/12/21 11:45:33;;;;;;;16.73;9.60;;;7.80;74.20;;;;;;5080735;28;20009;-59
2021/12/21 11:48:10;;;;;;;16.48;8.75;;;7.80;74.60;;;;;;5072839;28;20509;-59
2021/12/21 11:50:38;;;;;;;14.35;8.40;;;7.90;75.00;;;;;;5091497;28;20135;-59
2021/12/21 11:53:07;;;;;;;12.68;8.20;;;7.90;74.80;;;;;;5090779;28;20489;-59
2021/12/21 11:55:35;;;;;;;14.80;9.32;;;7.80;77.30;;;;;;5081287;28;20024;-60
2021/12/21 11:58:14;;;;;;;13.23;8.48;;;7.90;74.80;;;;;;5092595;28;20024;-60
2021/12/21 12:00:48;;;;;;;12.77;8.50;;;8.00;74.00;;;;;;5078244;28;20637;-60
2021/12/21 12:03:20;;;;;;;14.35;8.60;;;8.00;76.90;;;;;;5091633;28;20054;-60
2021/12/21 12:05:50;;;;;;;11.60;8.30;;;8.00;74.00;;;;;;5077546;28;20028;-60
2021/12/21 12:08:16;;;;;;;13.60;8.40;;;8.10;72.30;;;;;;5072741;28;20021;-59
2021/12/21 12:11:00;;;;;;;11.85;8.65;;;8.10;72.50;;;;;;5079292;28;20029;-59
2021/12/21 12:13:32;;;;;;;11.35;8.20;;;8.10;73.00;;;;;;5086664;28;20035;-60
2021/12/21 12:16:02;;;;;;;14.25;9.25;;;8.10;72.80;;;;;;5085016;28;20035;-60
2021/12/21 12:18:34;;;;;;;13.30;8.10;;;8.10;73.00;;;;;;5104029;28;20465;-59
2021/12/21 12:21:17;;;;;;;16.55;8.20;;;8.10;73.20;;;;;;5088000;28;20028;-59
2021/12/21 12:23:55;;;;;;;15.95;8.25;;;8.20;73.10;;;;;;5081085;28;20036;-59
2021/12/21 12:26:28;;;;;;;11.23;7.55;;;8.10;73.50;;;;;;5091258;28;20456;-59
2021/12/21 12:28:56;;;;;;;12.60;7.95;;;8.20;73.40;;;;;;5093866;28;20028;-59
2021/12/21 12:31:37;;;;;;;14.77;9.95;;;8.10;73.90;;;;;;5087641;28;20050;-60
2021/12/21 12:34:03;;;;;;;13.27;8.35;;;8.20;73.00;;;;;;5095996;28;20024;-60
2021/12/21 12:36:37;;;;;;;12.50;7.50;;;8.30;73.40;;;;;;5094572;28;20020;-59
2021/12/21 12:39:04;;;;;;;16.27;9.05;;;8.30;72.00;;;;;;5089067;28;20024;-65
2021/12/21 12:41:29;;;;;;;16.27;8.95;;;8.30;72.40;;;;;;5083002;28;20082;-59
2021/12/21 12:43:55;;;;;;;11.02;7.90;;;8.30;72.30;;;;;;5084923;28;20458;-60
2021/12/21 12:46:27;;;;;;;13.73;7.90;;;8.30;72.10;;;;;;5084655;28;20055;-59
2021/12/21 12:48:53;;;;;;;14.07;8.07;;;8.40;71.80;;;;;;5075427;28;20029;-58
2021/12/21 12:51:30;;;;;;;13.35;8.35;;;8.40;71.10;;;;;;5076034;28;20021;-58
2021/12/21 12:53:56;;;;;;;10.38;6.93;;;8.40;71.40;;;;;;5093716;28;20020;-59
2021/12/21 12:56:22;;;;;;;15.70;8.20;;;8.40;71.50;;;;;;5075643;28;20019;-59
2021/12/21 12:58:49;;;;;;;11.23;7.75;;;8.40;71.50;;;;;;5074174;28;20104;-58
2021/12/21 13:01:21;;;;;;;12.45;8.18;;;8.40;71.30;;;;;;5075217;28;20029;-60
2021/12/21 13:03:47;;;;;;;11.83;7.57;;;8.40;70.80;;;;;;5075252;28;20100;-58
2021/12/21 13:06:17;;;;;;;11.32;8.10;;;8.50;70.10;;;;;;5078506;28;20020;-56
2021/12/21 13:08:43;;;;;;;12.38;7.68;;;8.50;70.00;;;;;;5090974;28;20380;-60
2021/12/21 13:11:10;;;;;;;11.75;6.72;;;8.50;70.10;;;;;;5085795;28;20544;-58
2021/12/21 13:13:40;;;;;;;11.48;7.47;;;8.40;71.30;;;;;;5081074;28;20025;-58
2021/12/21 13:16:21;;;;;;;9.73;7.18;;;8.50;71.00;;;;;;5074782;28;20123;-58
2021/12/21 13:18:54;;;;;;;13.25;7.20;;;8.50;70.80;;;;;;5094458;28;20047;-57
2021/12/21 13:21:32;;;;;;;16.25;8.70;;;8.60;70.50;;;;;;5095039;28;20024;-58
2021/12/21 13:24:00;;;;;;;11.75;8.10;;;8.60;71.10;;;;;;5092753;28;20030;-58
2021/12/21 13:26:33;;;;;;;12.27;7.22;;;8.60;70.20;;;;;;5092592;28;20257;-58
2021/12/21 13:28:59;;;;;;;11.80;8.07;;;8.60;70.90;;;;;;5093416;28;20123;-58
2021/12/21 13:31:25;;;;;;;14.07;8.38;;;8.60;70.60;;;;;;5094994;28;20020;-58
2021/12/21 13:33:54;;;;;;;15.88;7.68;;;8.60;70.80;;;;;;5089886;28;20486;-58
2021/12/21 13:36:41;;;;;;;13.45;7.47;;;8.50;71.70;;;;;;5074732;28;20033;-58
2021/12/21 13:39:28;;;;;;;10.07;7.28;;;8.60;71.00;;;;;;5091556;28;20069;-58